Time;durP1;ratioP1;P1;durP2;ratioP2;P2;SDS_P1;SDS_P2;PMS_P1;PMS_P2;Temp;Humidity;BMP_temperature;BMP_pressure;BME280_temperature;BME280_humidity;BME280_pressure;Samples;Min_cycle;Max_cycle;Signal;HPM_P1;HPM_P2
2023/09/05 00:02:25;;;;;;;37.13;35.63;;;24.20;78.70;;;;;;4990303;28;20482;-50
2023/09/05 00:04:55;;;;;;;35.90;34.40;;;24.20;78.90;;;;;;4991229;28;20489;-52
2023/09/05 00:07:22;;;;;;;37.57;35.90;;;24.20;78.80;;;;;;4991415;28;20889;-51
2023/09/05 00:09:49;;;;;;;38.13;36.63;;;24.20;78.70;;;;;;4988425;28;20917;-50
2023/09/05 00:12:16;;;;;;;38.17;36.67;;;24.20;78.80;;;;;;4991293;28;20822;-50
2023/09/05 00:14:44;;;;;;;38.33;36.77;;;24.20;79.00;;;;;;4991577;28;20481;-51
2023/09/05 00:17:11;;;;;;;37.23;35.73;;;24.20;78.90;;;;;;4990527;28;20478;-50
2023/09/05 00:19:38;;;;;;;40.23;38.53;;;24.20;78.90;;;;;;4990729;28;20494;-50
2023/09/05 00:22:05;;;;;;;36.30;34.90;;;24.20;78.80;;;;;;4990142;28;20490;-50
2023/09/05 00:24:36;;;;;;;37.90;36.20;;;24.10;78.70;;;;;;4990730;28;20471;-50
2023/09/05 00:27:06;;;;;;;38.40;36.90;;;24.10;78.50;;;;;;4991143;28;20507;-50
2023/09/05 00:29:33;;;;;;;39.83;38.23;;;24.10;78.40;;;;;;4990406;28;20553;-53
2023/09/05 00:32:02;;;;;;;39.20;37.70;;;24.10;78.40;;;;;;4986815;28;20483;-50
2023/09/05 00:34:29;;;;;;;38.20;36.70;;;24.10;78.40;;;;;;4989459;28;20458;-50
2023/09/05 00:36:58;;;;;;;37.40;35.80;;;24.10;78.70;;;;;;4990016;28;20486;-51
2023/09/05 00:39:26;;;;;;;39.80;38.20;;;24.10;78.60;;;;;;4990874;28;20837;-49
2023/09/05 00:41:54;;;;;;;36.43;34.67;;;24.10;78.60;;;;;;4989977;28;20483;-49
2023/09/05 00:44:21;;;;;;;36.93;35.43;;;24.10;78.70;;;;;;4990835;28;20451;-53
2023/09/05 00:46:49;;;;;;;37.53;36.10;;;24.10;78.70;;;;;;4990415;28;20878;-50
2023/09/05 00:49:17;;;;;;;40.00;38.50;;;24.10;78.80;;;;;;4978740;28;20510;-52
2023/09/05 00:51:50;;;;;;;39.67;37.97;;;24.10;78.90;;;;;;4990615;28;20525;-52
2023/09/05 00:54:18;;;;;;;38.90;37.40;;;24.00;78.80;;;;;;4990475;28;20462;-54
2023/09/05 00:56:45;;;;;;;38.70;37.10;;;24.10;79.10;;;;;;4988607;28;20482;-50
2023/09/05 00:59:13;;;;;;;36.80;35.30;;;24.00;79.00;;;;;;4989792;28;20493;-51
2023/09/05 01:01:40;;;;;;;37.77;36.27;;;24.10;79.20;;;;;;4990199;28;20482;-50
2023/09/05 01:04:07;;;;;;;36.97;35.57;;;24.10;79.30;;;;;;4983577;28;20531;-50
2023/09/05 01:06:50;;;;;;;37.50;35.90;;;24.10;79.30;;;;;;4990602;28;20472;-51
2023/09/05 01:09:26;;;;;;;37.80;36.30;;;24.10;79.40;;;;;;4982064;28;20479;-50
2023/09/05 01:11:54;;;;;;;37.87;36.33;;;24.00;79.20;;;;;;4990042;28;20486;-50
2023/09/05 01:14:21;;;;;;;37.10;35.60;;;24.00;79.10;;;;;;4990313;28;20454;-50
2023/09/05 01:16:48;;;;;;;35.13;33.73;;;24.00;79.10;;;;;;4989802;28;20486;-51
2023/09/05 01:19:16;;;;;;;35.97;34.57;;;24.00;79.20;;;;;;4990044;28;20985;-50
2023/09/05 01:21:59;;;;;;;37.77;36.27;;;24.00;79.10;;;;;;4990053;28;20443;-50
2023/09/05 01:24:28;;;;;;;36.07;34.50;;;24.00;79.20;;;;;;4986336;28;20885;-50
2023/09/05 01:26:55;;;;;;;39.47;37.87;;;24.00;79.20;;;;;;4988465;28;20447;-50
2023/09/05 01:29:30;;;;;;;39.30;37.63;;;24.00;79.30;;;;;;4989930;28;20503;-50
2023/09/05 01:31:58;;;;;;;38.50;37.00;;;24.00;79.40;;;;;;4989250;28;20479;-49
2023/09/05 01:34:25;;;;;;;37.03;35.53;;;24.00;79.40;;;;;;4990167;28;20475;-49
2023/09/05 01:36:52;;;;;;;36.97;35.57;;;24.00;79.60;;;;;;4986419;28;20530;-49
2023/09/05 01:39:19;;;;;;;39.57;38.03;;;24.00;79.70;;;;;;4981449;28;20893;-49
2023/09/05 01:41:48;;;;;;;38.23;36.73;;;24.00;79.80;;;;;;4989631;28;20482;-50
2023/09/05 01:44:15;;;;;;;39.27;37.67;;;24.00;79.90;;;;;;4989532;28;20479;-50
2023/09/05 01:46:42;;;;;;;37.97;36.47;;;23.90;79.90;;;;;;4989474;28;20486;-50
2023/09/05 01:49:09;;;;;;;37.00;35.50;;;24.00;80.00;;;;;;4988791;28;20479;-49
2023/09/05 01:51:36;;;;;;;38.87;37.37;;;24.00;79.90;;;;;;4989631;28;20515;-50
2023/09/05 01:54:03;;;;;;;38.73;37.23;;;23.90;79.80;;;;;;4989329;28;20535;-52
2023/09/05 01:56:30;;;;;;;37.97;36.40;;;24.00;79.80;;;;;;4989384;28;20486;-49
2023/09/05 01:58:58;;;;;;;37.13;35.53;;;23.90;79.80;;;;;;4989477;28;20502;-50
2023/09/05 02:01:27;;;;;;;36.40;35.00;;;23.90;79.70;;;;;;4989580;28;20881;-50
2023/09/05 02:03:54;;;;;;;40.03;38.47;;;24.00;79.80;;;;;;4989475;28;21436;-52
2023/09/05 02:06:21;;;;;;;37.53;36.03;;;23.90;79.60;;;;;;4987094;28;20965;-50
2023/09/05 02:08:48;;;;;;;37.40;36.00;;;23.90;79.60;;;;;;4989151;28;20524;-50
2023/09/05 02:11:15;;;;;;;37.73;36.13;;;23.90;79.60;;;;;;4989289;28;20566;-51
2023/09/05 02:13:41;;;;;;;37.67;36.17;;;23.90;79.60;;;;;;4989383;28;20453;-50
2023/09/05 02:16:10;;;;;;;39.50;37.97;;;23.90;79.60;;;;;;4989644;28;20474;-49
2023/09/05 02:18:37;;;;;;;39.17;37.47;;;23.90;79.60;;;;;;4987945;28;20501;-51
2023/09/05 02:21:03;;;;;;;38.70;37.10;;;23.90;79.70;;;;;;4989563;28;20474;-49
2023/09/05 02:23:30;;;;;;;35.53;33.90;;;23.90;79.60;;;;;;4985982;28;20490;-51
2023/09/05 02:25:58;;;;;;;38.20;36.70;;;23.90;79.60;;;;;;4988605;28;20962;-50
2023/09/05 02:28:25;;;;;;;37.93;36.30;;;23.90;79.50;;;;;;4988763;28;20502;-49
2023/09/05 02:30:52;;;;;;;35.90;34.50;;;23.90;79.40;;;;;;4988576;28;20513;-49
2023/09/05 02:33:21;;;;;;;39.53;38.03;;;23.90;79.30;;;;;;4985127;28;20486;-50
2023/09/05 02:35:48;;;;;;;39.07;37.47;;;23.90;79.20;;;;;;4989357;28;20478;-49
2023/09/05 02:38:15;;;;;;;35.60;34.10;;;23.90;79.20;;;;;;4985000;28;20521;-49
2023/09/05 02:40:46;;;;;;;37.30;35.70;;;23.90;79.10;;;;;;4985890;28;20486;-50
2023/09/05 02:43:13;;;;;;;41.33;39.73;;;23.90;79.10;;;;;;4988006;28;20561;-50
2023/09/05 02:45:40;;;;;;;38.97;37.13;;;23.90;78.90;;;;;;4988561;28;20485;-49
2023/09/05 02:48:07;;;;;;;38.20;36.70;;;23.90;78.70;;;;;;4988783;28;21021;-49
2023/09/05 02:50:36;;;;;;;39.10;37.50;;;23.90;78.70;;;;;;4989139;28;21032;-50
2023/09/05 02:53:03;;;;;;;39.43;37.83;;;23.90;78.70;;;;;;4984812;28;20475;-50
2023/09/05 02:55:29;;;;;;;36.03;34.43;;;23.80;78.40;;;;;;4988660;28;21087;-53
2023/09/05 02:57:56;;;;;;;36.73;35.10;;;23.90;78.50;;;;;;4987986;28;20466;-50
2023/09/05 03:00:23;;;;;;;37.43;35.93;;;23.80;78.30;;;;;;4988403;28;20498;-51
2023/09/05 03:02:52;;;;;;;41.53;39.93;;;23.90;78.40;;;;;;4986904;28;20512;-51
2023/09/05 03:05:19;;;;;;;42.33;40.70;;;23.90;78.40;;;;;;4988945;28;20811;-50
2023/09/05 03:07:47;;;;;;;41.27;39.60;;;23.80;78.30;;;;;;4988334;28;20493;-51
2023/09/05 03:10:14;;;;;;;41.37;39.67;;;23.80;78.10;;;;;;4988216;28;20512;-51
2023/09/05 03:12:40;;;;;;;40.43;38.73;;;23.80;78.10;;;;;;4988401;28;20882;-50
2023/09/05 03:15:08;;;;;;;40.43;38.73;;;23.80;78.10;;;;;;4988320;28;20487;-50
2023/09/05 03:17:35;;;;;;;44.17;42.47;;;23.80;78.00;;;;;;4988291;28;20243;-49
2023/09/05 03:20:03;;;;;;;41.00;39.40;;;23.80;77.90;;;;;;4988723;28;20471;-51
2023/09/05 03:22:29;;;;;;;42.00;40.40;;;23.80;78.00;;;;;;4987630;28;20527;-50
2023/09/05 03:24:58;;;;;;;42.60;41.00;;;23.80;78.10;;;;;;4987718;28;20489;-51
2023/09/05 03:27:24;;;;;;;40.40;38.80;;;23.80;78.10;;;;;;4988305;28;20477;-51
2023/09/05 03:29:51;;;;;;;39.87;38.17;;;23.80;78.10;;;;;;4988413;28;20466;-50
2023/09/05 03:32:19;;;;;;;41.00;39.30;;;23.80;78.10;;;;;;4988010;28;20574;-54
2023/09/05 03:34:48;;;;;;;42.90;41.20;;;23.80;78.20;;;;;;4988471;28;20534;-55
2023/09/05 03:37:16;;;;;;;40.73;39.00;;;23.80;78.20;;;;;;4988226;28;20466;-54
2023/09/05 03:39:43;;;;;;;40.87;39.10;;;23.80;78.10;;;;;;4985833;28;20463;-50
2023/09/05 03:42:12;;;;;;;39.10;37.50;;;23.80;78.10;;;;;;4988287;28;20490;-53
2023/09/05 03:44:39;;;;;;;41.73;40.03;;;23.80;78.20;;;;;;4988248;28;20878;-51
2023/09/05 03:47:05;;;;;;;42.43;40.73;;;23.80;78.30;;;;;;4987746;28;20887;-50
2023/09/05 03:49:32;;;;;;;40.70;38.90;;;23.80;78.30;;;;;;4987207;28;20498;-53
2023/09/05 03:52:00;;;;;;;45.23;43.43;;;23.80;78.30;;;;;;4985474;28;20558;-50
2023/09/05 03:54:26;;;;;;;41.70;39.90;;;23.80;78.20;;;;;;4988053;28;20451;-50
2023/09/05 03:56:53;;;;;;;43.47;41.67;;;23.80;78.30;;;;;;4987688;28;20487;-50
2023/09/05 03:59:22;;;;;;;42.03;40.33;;;23.80;78.30;;;;;;4988015;28;20558;-49
2023/09/05 04:01:49;;;;;;;48.23;46.23;;;23.80;78.30;;;;;;4988004;28;20482;-53
2023/09/05 04:04:16;;;;;;;46.87;44.93;;;23.80;78.40;;;;;;4983511;28;20461;-50
2023/09/05 04:06:43;;;;;;;44.37;42.67;;;23.80;78.40;;;;;;4987565;28;20482;-49
2023/09/05 04:09:10;;;;;;;46.30;44.40;;;23.80;78.40;;;;;;4985640;28;20507;-50
2023/09/05 04:11:37;;;;;;;46.90;45.00;;;23.80;78.40;;;;;;4988886;28;20590;-51
2023/09/05 04:14:04;;;;;;;49.67;47.17;;;23.80;78.40;;;;;;4991258;28;20512;-50
2023/09/05 04:16:32;;;;;;;48.60;46.70;;;23.80;78.50;;;;;;4990784;28;20474;-52
2023/09/05 04:18:59;;;;;;;51.13;49.13;;;23.80;78.60;;;;;;4991068;28;20513;-54
2023/09/05 04:21:26;;;;;;;49.17;46.93;;;23.80;78.60;;;;;;4991449;28;20467;-49
2023/09/05 04:23:53;;;;;;;52.10;48.90;;;23.80;78.80;;;;;;4990868;28;20475;-50
2023/09/05 04:26:22;;;;;;;51.10;48.23;;;23.80;79.20;;;;;;4990639;28;20474;-50
2023/09/05 04:28:49;;;;;;;50.07;47.77;;;23.80;80.10;;;;;;4990566;28;20996;-55
2023/09/05 04:31:18;;;;;;;49.37;45.97;;;23.80;81.90;;;;;;4991122;28;20514;-59
2023/09/05 04:33:46;;;;;;;50.37;47.67;;;23.80;84.10;;;;;;4988619;28;20482;-51
2023/09/05 04:36:13;;;;;;;47.97;45.77;;;23.90;86.30;;;;;;4989954;28;20993;-53
2023/09/05 04:38:43;;;;;;;47.30;44.63;;;23.90;85.80;;;;;;4991426;28;20467;-50
2023/09/05 04:41:10;;;;;;;49.03;46.90;;;23.90;85.40;;;;;;4991037;28;20518;-49
2023/09/05 04:43:37;;;;;;;47.80;45.37;;;23.90;84.90;;;;;;4991154;28;20580;-50
2023/09/05 04:46:05;;;;;;;46.70;44.23;;;23.90;84.40;;;;;;4990762;28;20470;-49
2023/09/05 04:48:32;;;;;;;47.27;45.27;;;23.90;84.30;;;;;;4990819;28;20459;-49
2023/09/05 04:51:03;;;;;;;48.80;46.23;;;23.90;83.90;;;;;;4989998;28;20478;-51
2023/09/05 04:53:30;;;;;;;51.70;49.30;;;23.90;83.70;;;;;;4983856;28;20862;-50
2023/09/05 04:56:00;;;;;;;54.43;52.10;;;23.90;83.60;;;;;;4990825;28;20565;-49
2023/09/05 04:58:29;;;;;;;57.47;55.07;;;23.90;83.40;;;;;;4982966;28;20469;-49
2023/09/05 05:00:56;;;;;;;47.63;45.63;;;23.90;83.20;;;;;;4991034;28;20458;-49
2023/09/05 05:03:25;;;;;;;49.60;47.50;;;23.80;83.10;;;;;;4990680;28;20442;-49
2023/09/05 05:05:51;;;;;;;48.40;46.20;;;23.90;83.10;;;;;;4990654;28;20439;-50
2023/09/05 05:08:20;;;;;;;50.87;48.40;;;23.80;82.80;;;;;;4990623;28;20498;-49
2023/09/05 05:10:46;;;;;;;47.17;45.03;;;23.90;82.80;;;;;;4990587;28;20482;-49
2023/09/05 05:13:13;;;;;;;43.47;41.47;;;23.90;82.70;;;;;;4990524;28;20474;-49
2023/09/05 05:15:40;;;;;;;42.47;40.50;;;23.90;82.60;;;;;;4990397;28;20439;-52
2023/09/05 05:18:07;;;;;;;44.80;42.87;;;23.90;82.60;;;;;;4990367;28;20471;-49
2023/09/05 05:20:34;;;;;;;45.73;43.67;;;23.80;82.40;;;;;;4990525;28;20471;-53
2023/09/05 05:23:01;;;;;;;46.00;43.50;;;23.80;82.20;;;;;;4989316;28;20471;-51
2023/09/05 05:25:29;;;;;;;46.80;44.63;;;23.80;82.10;;;;;;4990380;28;20439;-51
2023/09/05 05:27:56;;;;;;;44.83;42.90;;;23.80;82.10;;;;;;4990201;28;20986;-49
2023/09/05 05:30:23;;;;;;;48.10;46.10;;;23.80;82.10;;;;;;4990282;28;20995;-49
2023/09/05 05:32:50;;;;;;;47.17;45.07;;;23.80;82.00;;;;;;4990181;28;21056;-49
2023/09/05 05:35:17;;;;;;;46.80;44.70;;;23.80;82.00;;;;;;4989973;28;20471;-49
2023/09/05 05:37:44;;;;;;;48.57;46.43;;;23.80;82.00;;;;;;4990318;28;20564;-49
2023/09/05 05:40:13;;;;;;;45.93;44.03;;;23.80;82.00;;;;;;4990105;28;20447;-48
2023/09/05 05:42:41;;;;;;;45.30;43.43;;;23.80;81.90;;;;;;4990186;28;20535;-50
2023/09/05 05:45:09;;;;;;;46.17;43.90;;;23.80;81.90;;;;;;4989910;28;20451;-52
2023/09/05 05:47:36;;;;;;;49.10;46.77;;;23.80;81.80;;;;;;4990034;28;20967;-49
2023/09/05 05:50:03;;;;;;;45.70;43.60;;;23.80;81.80;;;;;;4990013;28;20863;-55
2023/09/05 05:52:30;;;;;;;45.63;43.63;;;23.80;81.80;;;;;;4990127;28;20483;-52
2023/09/05 05:54:57;;;;;;;44.13;42.33;;;23.80;81.80;;;;;;4990218;28;20439;-53
2023/09/05 05:57:24;;;;;;;41.87;40.17;;;23.80;81.90;;;;;;4990020;28;20439;-50
2023/09/05 05:59:52;;;;;;;46.33;44.43;;;23.80;81.90;;;;;;4989908;28;20521;-49
2023/09/05 06:02:19;;;;;;;43.97;42.03;;;23.80;82.00;;;;;;4989738;28;20448;-50
2023/09/05 06:04:46;;;;;;;48.13;46.23;;;23.80;82.10;;;;;;4989984;28;20443;-50
2023/09/05 06:07:13;;;;;;;45.30;43.30;;;23.80;82.00;;;;;;4989536;28;20478;-54
2023/09/05 06:09:40;;;;;;;44.00;42.20;;;23.70;81.90;;;;;;4989724;28;20502;-53
2023/09/05 06:12:07;;;;;;;46.23;44.23;;;23.70;82.00;;;;;;4989514;28;20569;-51
2023/09/05 06:14:34;;;;;;;46.57;44.47;;;23.80;82.10;;;;;;4989721;28;20490;-50
2023/09/05 06:17:03;;;;;;;44.87;42.97;;;23.80;82.20;;;;;;4989379;28;20474;-52
2023/09/05 06:19:29;;;;;;;46.77;44.47;;;23.80;82.20;;;;;;4981666;28;20463;-50
2023/09/05 06:21:58;;;;;;;44.90;43.00;;;23.70;82.10;;;;;;4989650;28;20918;-50
2023/09/05 06:24:25;;;;;;;46.30;44.33;;;23.70;82.00;;;;;;4989560;28;20912;-50
2023/09/05 06:26:52;;;;;;;46.13;44.23;;;23.80;82.40;;;;;;4989390;28;20443;-50
2023/09/05 06:29:19;;;;;;;45.97;44.07;;;23.70;82.40;;;;;;4989204;28;20501;-49
2023/09/05 06:31:48;;;;;;;48.30;46.30;;;23.70;82.50;;;;;;4989271;28;20564;-50
2023/09/05 06:34:17;;;;;;;44.57;42.33;;;23.70;82.50;;;;;;4989063;28;20447;-52
2023/09/05 06:36:44;;;;;;;43.83;41.80;;;23.70;82.60;;;;;;4989267;28;20978;-52
2023/09/05 06:39:11;;;;;;;42.90;41.00;;;23.70;82.50;;;;;;4989225;28;20882;-50
2023/09/05 06:41:39;;;;;;;42.83;40.53;;;23.70;82.70;;;;;;4989456;28;20435;-51
2023/09/05 06:44:06;;;;;;;42.77;40.83;;;23.70;82.70;;;;;;4989338;28;20478;-49
2023/09/05 06:46:35;;;;;;;41.27;39.47;;;23.70;82.80;;;;;;4989195;28;20818;-49
2023/09/05 06:49:02;;;;;;;40.87;39.07;;;23.70;82.80;;;;;;4989145;28;20607;-51
2023/09/05 06:51:31;;;;;;;43.40;41.50;;;23.70;82.80;;;;;;4989136;28;20443;-49
2023/09/05 06:53:58;;;;;;;41.07;39.27;;;23.70;82.90;;;;;;4989303;28;20447;-50
2023/09/05 06:56:25;;;;;;;42.10;40.20;;;23.70;83.20;;;;;;4989020;28;20443;-49
2023/09/05 06:58:52;;;;;;;40.53;38.63;;;23.70;83.10;;;;;;4989015;28;20482;-52
2023/09/05 07:01:19;;;;;;;38.77;37.07;;;23.70;83.00;;;;;;4988937;28;20474;-49
2023/09/05 07:03:46;;;;;;;41.33;39.43;;;23.70;83.10;;;;;;4989205;28;20467;-51
2023/09/05 07:06:18;;;;;;;42.20;40.30;;;23.70;83.10;;;;;;4988829;28;20443;-49
2023/09/05 07:08:46;;;;;;;40.67;38.77;;;23.70;83.20;;;;;;4988879;28;20468;-49
2023/09/05 07:11:13;;;;;;;40.77;38.97;;;23.70;83.20;;;;;;4988827;28;20796;-49
2023/09/05 07:13:40;;;;;;;42.33;40.33;;;23.70;83.10;;;;;;4988885;28;20943;-49
2023/09/05 07:16:07;;;;;;;43.93;41.60;;;23.70;83.20;;;;;;4988498;28;20882;-49
2023/09/05 07:18:34;;;;;;;41.90;39.90;;;23.70;83.20;;;;;;4988775;28;20462;-49
2023/09/05 07:21:00;;;;;;;39.70;37.90;;;23.70;83.30;;;;;;4988837;28;20439;-51
2023/09/05 07:23:27;;;;;;;41.13;39.23;;;23.70;83.20;;;;;;4988649;28;20465;-49
2023/09/05 07:25:56;;;;;;;39.70;37.90;;;23.70;83.20;;;;;;4988639;28;20470;-49
2023/09/05 07:28:22;;;;;;;43.20;41.07;;;23.70;83.20;;;;;;4988559;28;20522;-51
2023/09/05 07:30:49;;;;;;;42.27;40.37;;;23.70;83.20;;;;;;4988741;28;20475;-49
2023/09/05 07:33:16;;;;;;;45.60;43.60;;;23.70;83.30;;;;;;4988477;28;20514;-49
2023/09/05 07:35:44;;;;;;;41.80;39.90;;;23.70;83.30;;;;;;4988491;28;20479;-49
2023/09/05 07:38:12;;;;;;;44.43;42.40;;;23.70;83.30;;;;;;4988485;28;20552;-52
2023/09/05 07:40:38;;;;;;;42.20;40.00;;;23.70;83.50;;;;;;4988628;28;20447;-50
2023/09/05 07:43:07;;;;;;;44.30;42.27;;;23.70;83.60;;;;;;4988674;28;20470;-50
2023/09/05 07:45:35;;;;;;;44.13;41.97;;;23.70;83.40;;;;;;4980532;28;20494;-50
2023/09/05 07:48:02;;;;;;;42.50;40.60;;;23.70;83.30;;;;;;4991897;28;20466;-50
2023/09/05 07:50:29;;;;;;;44.10;42.17;;;23.70;83.30;;;;;;4992071;28;20497;-52
2023/09/05 07:52:56;;;;;;;43.70;41.80;;;23.70;83.40;;;;;;4992106;28;20910;-50
2023/09/05 07:55:23;;;;;;;42.30;40.40;;;23.70;83.50;;;;;;4991780;28;20443;-54
2023/09/05 07:57:51;;;;;;;41.40;39.50;;;23.70;83.40;;;;;;4991994;28;20471;-50
2023/09/05 08:00:20;;;;;;;42.40;40.40;;;23.70;83.60;;;;;;4991716;28;20489;-49
2023/09/05 08:02:47;;;;;;;40.50;38.70;;;23.70;83.70;;;;;;4991844;28;20447;-49
2023/09/05 08:05:14;;;;;;;41.47;39.57;;;23.70;83.90;;;;;;4991466;28;21022;-50
2023/09/05 08:07:42;;;;;;;41.50;39.60;;;23.70;83.90;;;;;;4991625;28;20475;-51
2023/09/05 08:10:09;;;;;;;40.60;38.70;;;23.70;83.70;;;;;;4991668;28;20474;-53
2023/09/05 08:12:36;;;;;;;41.50;39.63;;;23.70;83.80;;;;;;4991577;28;20489;-49
2023/09/05 08:15:05;;;;;;;42.60;40.63;;;23.70;83.80;;;;;;4991269;28;20533;-51
2023/09/05 08:17:33;;;;;;;41.20;39.30;;;23.70;83.80;;;;;;4991407;28;20443;-49
2023/09/05 08:20:00;;;;;;;44.00;42.10;;;23.70;83.90;;;;;;4991642;28;20474;-51
2023/09/05 08:22:27;;;;;;;43.07;41.03;;;23.70;84.10;;;;;;4991462;28;20467;-49
2023/09/05 08:24:54;;;;;;;43.80;41.70;;;23.70;83.90;;;;;;4991464;28;20531;-50
2023/09/05 08:27:28;;;;;;;40.17;38.37;;;23.70;84.20;;;;;;4991081;28;20475;-51
2023/09/05 08:29:56;;;;;;;41.57;39.67;;;23.70;84.10;;;;;;4991281;28;20478;-49
2023/09/05 08:32:23;;;;;;;42.40;40.20;;;23.70;84.10;;;;;;4991096;28;20489;-54
2023/09/05 08:34:51;;;;;;;42.33;40.43;;;23.70;84.10;;;;;;4991229;28;20481;-51
2023/09/05 08:37:19;;;;;;;42.20;40.20;;;23.70;84.10;;;;;;4991101;28;20876;-51
2023/09/05 08:39:46;;;;;;;40.20;38.50;;;23.70;85.00;;;;;;4991405;28;20463;-51
2023/09/05 08:42:13;;;;;;;43.80;41.80;;;23.70;84.30;;;;;;4991034;28;20443;-50
2023/09/05 08:44:41;;;;;;;44.83;42.80;;;23.70;84.30;;;;;;4991030;28;20878;-52
2023/09/05 08:47:08;;;;;;;44.70;42.70;;;23.70;84.30;;;;;;4990808;28;20451;-49
2023/09/05 08:49:35;;;;;;;43.60;41.50;;;23.70;84.30;;;;;;4983127;28;20490;-51
2023/09/05 08:52:05;;;;;;;42.77;40.87;;;23.70;84.30;;;;;;4991049;28;20467;-50
2023/09/05 08:54:32;;;;;;;42.00;40.10;;;23.70;84.40;;;;;;4990897;28;20525;-49
2023/09/05 08:57:00;;;;;;;43.87;41.97;;;23.70;84.30;;;;;;4990548;28;20478;-53
2023/09/05 08:59:27;;;;;;;40.77;38.87;;;23.70;84.40;;;;;;4990603;28;20469;-52
2023/09/05 09:01:54;;;;;;;41.67;39.77;;;23.70;84.40;;;;;;4990814;28;20440;-49
2023/09/05 09:04:21;;;;;;;40.90;38.90;;;23.70;84.60;;;;;;4990693;28;20958;-49
2023/09/05 09:06:55;;;;;;;42.93;40.97;;;23.80;84.90;;;;;;4990820;28;20670;-58
2023/09/05 09:09:38;;;;;;;43.90;41.90;;;23.80;84.90;;;;;;4990521;28;20494;-57
2023/09/05 09:12:06;;;;;;;44.00;42.00;;;23.70;84.70;;;;;;4990615;28;20968;-49
2023/09/05 09:14:34;;;;;;;40.20;38.40;;;23.80;84.90;;;;;;4990569;28;20475;-54
2023/09/05 09:17:01;;;;;;;45.00;43.00;;;23.70;84.80;;;;;;4990533;28;20471;-56
2023/09/05 09:19:29;;;;;;;43.73;41.73;;;23.70;84.90;;;;;;4990405;28;20463;-49
2023/09/05 09:22:00;;;;;;;43.07;41.13;;;23.80;85.10;;;;;;4990667;28;20872;-50
2023/09/05 09:24:33;;;;;;;41.70;39.80;;;23.70;85.00;;;;;;4990533;28;20449;-49
2023/09/05 09:27:04;;;;;;;42.53;40.53;;;23.80;85.10;;;;;;4990541;28;20451;-55
2023/09/05 09:29:31;;;;;;;40.30;38.40;;;23.70;85.00;;;;;;4990153;28;20498;-57
2023/09/05 09:32:04;;;;;;;43.40;41.50;;;23.80;85.10;;;;;;4990346;28;20482;-50
2023/09/05 09:34:31;;;;;;;43.37;41.47;;;23.80;85.10;;;;;;4990152;28;20481;-56
2023/09/05 09:36:58;;;;;;;43.50;41.40;;;23.80;85.10;;;;;;4990145;28;20443;-57
2023/09/05 09:39:26;;;;;;;41.47;39.60;;;23.80;85.20;;;;;;4990309;28;20474;-52
2023/09/05 09:41:53;;;;;;;42.97;40.97;;;23.80;85.20;;;;;;4990333;28;20443;-52
2023/09/05 09:44:28;;;;;;;43.33;41.37;;;23.80;85.30;;;;;;4990283;28;20514;-52
2023/09/05 09:46:57;;;;;;;40.17;38.27;;;23.80;85.30;;;;;;4990336;28;20454;-54
2023/09/05 09:49:25;;;;;;;39.80;37.90;;;23.80;85.30;;;;;;4990152;28;20507;-57
2023/09/05 09:51:57;;;;;;;42.03;40.03;;;23.80;85.60;;;;;;4990060;28;20443;-51
2023/09/05 09:54:31;;;;;;;44.03;42.13;;;23.80;85.60;;;;;;4990011;28;20919;-54
2023/09/05 09:57:01;;;;;;;40.43;38.60;;;23.80;85.50;;;;;;4990003;28;20864;-49
2023/09/05 09:59:34;;;;;;;43.23;41.30;;;23.80;85.50;;;;;;4989816;28;20467;-49
2023/09/05 10:02:04;;;;;;;43.93;41.83;;;23.80;85.60;;;;;;4990088;28;20898;-54
2023/09/05 10:04:32;;;;;;;42.90;40.90;;;23.80;85.70;;;;;;4989908;28;20477;-49
2023/09/05 10:06:59;;;;;;;42.53;40.53;;;23.80;85.70;;;;;;4989778;28;20471;-50
2023/09/05 10:09:30;;;;;;;45.20;43.20;;;23.80;85.90;;;;;;4988909;28;20495;-49
2023/09/05 10:12:00;;;;;;;43.27;41.27;;;23.80;86.00;;;;;;4989875;28;20443;-58
2023/09/05 10:14:30;;;;;;;43.17;41.17;;;23.80;86.00;;;;;;4989654;28;20562;-49
2023/09/05 10:16:58;;;;;;;43.87;41.87;;;23.80;86.00;;;;;;4989700;28;20798;-52
2023/09/05 10:19:26;;;;;;;42.93;40.43;;;23.80;86.00;;;;;;4989527;28;20966;-54
2023/09/05 10:21:55;;;;;;;43.00;41.00;;;23.80;86.10;;;;;;4989680;28;20529;-56
2023/09/05 10:24:23;;;;;;;43.83;41.83;;;23.90;86.10;;;;;;4989610;28;21013;-58
2023/09/05 10:26:50;;;;;;;46.20;44.10;;;23.80;86.00;;;;;;4989447;28;20481;-52
2023/09/05 10:29:35;;;;;;;42.20;40.30;;;23.90;86.20;;;;;;4989497;28;20475;-51
2023/09/05 10:32:04;;;;;;;44.00;41.70;;;23.90;86.20;;;;;;4989609;28;20471;-51
2023/09/05 10:35:01;;;;;;;41.50;39.50;;;23.90;86.40;;;;;;4989586;28;20562;-49
2023/09/05 10:37:39;;;;;;;43.73;41.70;;;23.90;86.40;;;;;;4989433;28;20443;-54
2023/09/05 10:40:08;;;;;;;43.20;41.20;;;23.80;86.40;;;;;;4989601;28;20447;-56
2023/09/05 10:42:41;;;;;;;45.20;43.10;;;23.80;86.50;;;;;;4989531;28;20864;-54
2023/09/05 10:45:30;;;;;;;44.57;42.57;;;23.90;86.60;;;;;;4989278;28;20498;-52
2023/09/05 10:48:11;;;;;;;46.70;44.60;;;23.80;86.60;;;;;;4983750;28;20450;-49
2023/09/05 10:51:07;;;;;;;43.17;41.27;;;23.90;86.70;;;;;;4989142;28;20439;-52
2023/09/05 10:53:35;;;;;;;42.50;40.50;;;23.90;86.70;;;;;;4989238;28;20573;-48
2023/09/05 10:56:02;;;;;;;41.80;39.77;;;23.90;86.80;;;;;;4989023;28;20467;-50
2023/09/05 10:58:47;;;;;;;40.83;38.90;;;23.90;86.90;;;;;;4988984;28;20505;-54
2023/09/05 11:01:48;;;;;;;41.50;39.60;;;23.90;86.80;;;;;;4989136;28;20957;-51
2023/09/05 11:04:20;;;;;;;44.73;42.63;;;23.90;87.60;;;;;;4985741;28;20878;-54
2023/09/05 11:06:55;;;;;;;44.73;42.73;;;23.90;86.90;;;;;;4981931;28;20899;-51
2023/09/05 11:09:24;;;;;;;43.63;41.53;;;23.90;87.00;;;;;;4988774;28;20909;-49
2023/09/05 11:11:53;;;;;;;41.90;40.00;;;23.90;87.00;;;;;;4989027;28;20454;-52
2023/09/05 11:14:31;;;;;;;41.13;39.23;;;23.90;87.10;;;;;;4988819;28;20487;-54
2023/09/05 11:16:59;;;;;;;41.83;39.93;;;23.90;87.10;;;;;;4988761;28;20450;-51
2023/09/05 11:19:31;;;;;;;40.47;38.53;;;23.90;87.20;;;;;;4988680;28;20828;-50
2023/09/05 11:22:11;;;;;;;43.43;41.40;;;23.90;87.20;;;;;;4992174;28;20961;-53
2023/09/05 11:24:45;;;;;;;46.63;44.43;;;23.90;87.20;;;;;;4992315;28;20497;-54
2023/09/05 11:27:13;;;;;;;43.30;41.30;;;23.90;87.20;;;;;;4992351;28;20443;-50
2023/09/05 11:29:42;;;;;;;44.20;42.20;;;23.90;87.90;;;;;;4991987;28;20509;-52
2023/09/05 11:32:12;;;;;;;43.43;41.43;;;23.90;87.40;;;;;;4992386;28;20473;-51
2023/09/05 11:34:41;;;;;;;44.07;42.07;;;24.00;87.40;;;;;;4992199;28;20482;-54
2023/09/05 11:37:08;;;;;;;43.17;41.17;;;24.00;87.60;;;;;;4992143;28;20442;-52
2023/09/05 11:39:35;;;;;;;43.80;41.80;;;24.00;87.50;;;;;;4991869;28;20554;-52
2023/09/05 11:42:02;;;;;;;44.50;42.50;;;24.00;87.50;;;;;;4992095;28;21002;-49
2023/09/05 11:44:38;;;;;;;44.30;42.20;;;24.00;87.60;;;;;;4992148;28;20451;-48
2023/09/05 11:47:06;;;;;;;43.87;41.70;;;24.00;87.60;;;;;;4991857;28;20786;-52
2023/09/05 11:49:35;;;;;;;45.60;43.50;;;24.00;87.70;;;;;;4991954;28;20510;-53
2023/09/05 11:52:04;;;;;;;44.53;42.40;;;24.00;87.70;;;;;;4991986;28;20497;-50
2023/09/05 11:54:31;;;;;;;43.43;41.40;;;24.00;87.70;;;;;;4991729;28;20997;-48
2023/09/05 11:56:59;;;;;;;42.43;40.50;;;24.10;87.90;;;;;;4991757;28;20473;-48
2023/09/05 11:59:26;;;;;;;41.10;39.20;;;24.10;87.70;;;;;;4991658;28;20875;-50
2023/09/05 12:01:54;;;;;;;44.97;42.87;;;24.10;87.80;;;;;;4991998;28;20878;-49
2023/09/05 12:04:22;;;;;;;42.47;40.47;;;24.10;87.80;;;;;;4991785;28;20846;-49
2023/09/05 12:06:52;;;;;;;45.10;43.10;;;24.10;87.80;;;;;;4991755;28;20504;-50
2023/09/05 12:09:20;;;;;;;43.20;41.20;;;24.10;87.80;;;;;;4991519;28;20466;-50
2023/09/05 12:11:48;;;;;;;40.70;38.70;;;24.10;87.80;;;;;;4991670;28;20443;-50
2023/09/05 12:14:19;;;;;;;43.77;41.67;;;24.20;87.80;;;;;;4991626;28;20482;-50
2023/09/05 12:16:47;;;;;;;41.80;39.90;;;24.10;87.80;;;;;;4983950;28;20446;-49
2023/09/05 12:19:14;;;;;;;41.63;39.73;;;24.20;87.70;;;;;;4991538;28;20514;-52
2023/09/05 12:21:43;;;;;;;43.83;41.73;;;24.20;87.70;;;;;;4991467;28;20464;-49
2023/09/05 12:24:22;;;;;;;44.40;42.40;;;24.20;87.70;;;;;;4991459;28;20500;-49
2023/09/05 12:26:52;;;;;;;44.00;42.00;;;24.20;87.70;;;;;;4984037;28;20837;-50
2023/09/05 12:29:21;;;;;;;44.27;42.20;;;24.20;87.60;;;;;;4991327;28;20604;-50
2023/09/05 12:31:49;;;;;;;45.00;43.00;;;24.20;87.70;;;;;;4990772;28;20447;-53
2023/09/05 12:34:17;;;;;;;45.63;43.53;;;24.30;87.70;;;;;;4991343;28;20483;-52
2023/09/05 12:36:44;;;;;;;44.00;42.00;;;24.30;87.60;;;;;;4991299;28;20443;-49